sensor_id;sensor_type;location;lat;lon;timestamp;P1;durP1;ratioP1;P2;durP2;ratioP2
53875;SDS011;39789;53.216;5.624;2023-03-14T00:01:12;24.63;;;4.88;;
53875;SDS011;39789;53.216;5.624;2023-03-14T00:03:40;13.23;;;4.82;;
53875;SDS011;39789;53.216;5.624;2023-03-14T00:06:06;17.67;;;4.57;;
53875;SDS011;39789;53.216;5.624;2023-03-14T00:08:35;19.05;;;5.05;;
53875;SDS011;39789;53.216;5.624;2023-03-14T00:11:19;15.98;;;4.35;;
53875;SDS011;39789;53.216;5.624;2023-03-14T00:13:48;18.17;;;5.07;;
53875;SDS011;39789;53.216;5.624;2023-03-14T00:16:14;19.30;;;3.78;;
53875;SDS011;39789;53.216;5.624;2023-03-14T00:18:40;15.93;;;3.85;;
53875;SDS011;39789;53.216;5.624;2023-03-14T00:21:06;12.30;;;3.67;;
53875;SDS011;39789;53.216;5.624;2023-03-14T00:23:34;14.23;;;4.55;;
53875;SDS011;39789;53.216;5.624;2023-03-14T00:26:05;17.15;;;3.72;;
53875;SDS011;39789;53.216;5.624;2023-03-14T00:28:51;19.17;;;5.47;;
53875;SDS011;39789;53.216;5.624;2023-03-14T00:31:18;16.65;;;4.88;;
53875;SDS011;39789;53.216;5.624;2023-03-14T00:33:44;17.65;;;4.97;;
53875;SDS011;39789;53.216;5.624;2023-03-14T00:36:11;16.55;;;4.57;;
53875;SDS011;39789;53.216;5.624;2023-03-14T00:38:39;13.32;;;3.95;;
53875;SDS011;39789;53.216;5.624;2023-03-14T00:41:07;19.13;;;4.43;;
53875;SDS011;39789;53.216;5.624;2023-03-14T00:43:36;13.43;;;3.97;;
53875;SDS011;39789;53.216;5.624;2023-03-14T00:46:01;13.57;;;4.13;;
53875;SDS011;39789;53.216;5.624;2023-03-14T00:48:27;17.40;;;4.78;;
53875;SDS011;39789;53.216;5.624;2023-03-14T00:50:53;18.92;;;4.50;;
53875;SDS011;39789;53.216;5.624;2023-03-14T00:53:20;18.27;;;4.30;;
53875;SDS011;39789;53.216;5.624;2023-03-14T00:55:46;27.15;;;4.18;;
53875;SDS011;39789;53.216;5.624;2023-03-14T00:58:13;25.77;;;5.20;;
53875;SDS011;39789;53.216;5.624;2023-03-14T01:00:43;19.35;;;4.63;;
53875;SDS011;39789;53.216;5.624;2023-03-14T01:03:10;21.63;;;5.10;;
53875;SDS011;39789;53.216;5.624;2023-03-14T01:05:36;21.58;;;5.00;;
53875;SDS011;39789;53.216;5.624;2023-03-14T01:08:02;19.33;;;4.55;;
53875;SDS011;39789;53.216;5.624;2023-03-14T01:10:28;23.45;;;4.47;;
53875;SDS011;39789;53.216;5.624;2023-03-14T01:12:54;22.48;;;5.28;;
53875;SDS011;39789;53.216;5.624;2023-03-14T01:15:20;21.95;;;4.93;;
53875;SDS011;39789;53.216;5.624;2023-03-14T01:17:46;20.42;;;5.03;;
53875;SDS011;39789;53.216;5.624;2023-03-14T01:20:12;23.17;;;4.05;;
53875;SDS011;39789;53.216;5.624;2023-03-14T01:22:40;26.30;;;5.38;;
53875;SDS011;39789;53.216;5.624;2023-03-14T01:25:10;16.52;;;4.43;;
53875;SDS011;39789;53.216;5.624;2023-03-14T01:27:40;22.35;;;5.22;;
53875;SDS011;39789;53.216;5.624;2023-03-14T01:30:06;22.65;;;5.45;;
53875;SDS011;39789;53.216;5.624;2023-03-14T01:32:33;21.80;;;4.15;;
53875;SDS011;39789;53.216;5.624;2023-03-14T01:34:59;13.40;;;4.30;;
53875;SDS011;39789;53.216;5.624;2023-03-14T01:37:24;22.50;;;4.85;;
53875;SDS011;39789;53.216;5.624;2023-03-14T01:39:50;19.85;;;4.05;;
53875;SDS011;39789;53.216;5.624;2023-03-14T01:42:16;18.35;;;5.25;;
53875;SDS011;39789;53.216;5.624;2023-03-14T01:44:48;19.38;;;5.18;;
53875;SDS011;39789;53.216;5.624;2023-03-14T01:47:19;26.52;;;5.68;;
53875;SDS011;39789;53.216;5.624;2023-03-14T01:49:50;27.58;;;5.57;;
53875;SDS011;39789;53.216;5.624;2023-03-14T01:52:32;22.85;;;5.65;;
53875;SDS011;39789;53.216;5.624;2023-03-14T01:55:08;18.85;;;4.78;;
53875;SDS011;39789;53.216;5.624;2023-03-14T01:57:38;19.48;;;4.63;;
53875;SDS011;39789;53.216;5.624;2023-03-14T02:00:10;18.80;;;4.72;;
53875;SDS011;39789;53.216;5.624;2023-03-14T02:02:43;23.60;;;4.82;;
53875;SDS011;39789;53.216;5.624;2023-03-14T02:05:11;16.77;;;4.60;;
53875;SDS011;39789;53.216;5.624;2023-03-14T02:07:45;20.17;;;4.53;;
53875;SDS011;39789;53.216;5.624;2023-03-14T02:10:12;18.77;;;5.03;;
53875;SDS011;39789;53.216;5.624;2023-03-14T02:12:42;23.60;;;5.20;;
53875;SDS011;39789;53.216;5.624;2023-03-14T02:15:08;27.40;;;4.97;;
53875;SDS011;39789;53.216;5.624;2023-03-14T02:17:34;25.85;;;5.07;;
53875;SDS011;39789;53.216;5.624;2023-03-14T02:20:09;22.77;;;5.00;;
53875;SDS011;39789;53.216;5.624;2023-03-14T02:22:42;19.27;;;4.65;;
53875;SDS011;39789;53.216;5.624;2023-03-14T02:25:16;19.33;;;4.60;;
53875;SDS011;39789;53.216;5.624;2023-03-14T02:28:00;27.63;;;5.75;;
53875;SDS011;39789;53.216;5.624;2023-03-14T02:30:27;25.27;;;5.22;;
53875;SDS011;39789;53.216;5.624;2023-03-14T02:32:57;16.92;;;4.43;;
53875;SDS011;39789;53.216;5.624;2023-03-14T02:35:56;27.42;;;5.10;;
53875;SDS011;39789;53.216;5.624;2023-03-14T02:40:59;24.15;;;4.97;;
53875;SDS011;39789;53.216;5.624;2023-03-14T02:43:28;27.85;;;5.65;;
53875;SDS011;39789;53.216;5.624;2023-03-14T02:45:54;18.23;;;5.32;;
53875;SDS011;39789;53.216;5.624;2023-03-14T02:48:22;20.65;;;5.10;;
53875;SDS011;39789;53.216;5.624;2023-03-14T02:50:54;23.48;;;5.22;;
53875;SDS011;39789;53.216;5.624;2023-03-14T02:53:25;19.25;;;5.10;;
53875;SDS011;39789;53.216;5.624;2023-03-14T02:55:54;30.08;;;5.90;;
53875;SDS011;39789;53.216;5.624;2023-03-14T02:58:20;26.13;;;5.05;;
53875;SDS011;39789;53.216;5.624;2023-03-14T03:00:49;20.83;;;5.38;;
53875;SDS011;39789;53.216;5.624;2023-03-14T03:03:14;27.35;;;5.43;;
53875;SDS011;39789;53.216;5.624;2023-03-14T03:05:41;20.30;;;5.38;;
53875;SDS011;39789;53.216;5.624;2023-03-14T03:08:10;26.23;;;5.57;;
53875;SDS011;39789;53.216;5.624;2023-03-14T03:10:36;30.50;;;5.05;;
53875;SDS011;39789;53.216;5.624;2023-03-14T03:13:04;26.40;;;5.63;;
53875;SDS011;39789;53.216;5.624;2023-03-14T03:15:30;22.83;;;6.70;;
53875;SDS011;39789;53.216;5.624;2023-03-14T03:17:57;23.02;;;5.88;;
53875;SDS011;39789;53.216;5.624;2023-03-14T03:20:23;28.20;;;6.18;;
53875;SDS011;39789;53.216;5.624;2023-03-14T03:22:48;31.13;;;5.35;;
53875;SDS011;39789;53.216;5.624;2023-03-14T03:25:16;25.92;;;5.65;;
53875;SDS011;39789;53.216;5.624;2023-03-14T03:27:43;21.80;;;6.07;;
53875;SDS011;39789;53.216;5.624;2023-03-14T03:30:09;27.40;;;5.82;;
53875;SDS011;39789;53.216;5.624;2023-03-14T03:32:35;25.48;;;5.85;;
53875;SDS011;39789;53.216;5.624;2023-03-14T03:35:03;23.15;;;5.30;;
53875;SDS011;39789;53.216;5.624;2023-03-14T03:37:32;18.02;;;4.80;;
53875;SDS011;39789;53.216;5.624;2023-03-14T03:39:58;30.33;;;5.97;;
53875;SDS011;39789;53.216;5.624;2023-03-14T03:42:23;32.92;;;6.28;;
53875;SDS011;39789;53.216;5.624;2023-03-14T03:44:50;33.17;;;6.20;;
53875;SDS011;39789;53.216;5.624;2023-03-14T03:47:16;18.92;;;5.57;;
53875;SDS011;39789;53.216;5.624;2023-03-14T03:49:42;24.45;;;5.45;;
53875;SDS011;39789;53.216;5.624;2023-03-14T03:52:07;22.02;;;6.25;;
53875;SDS011;39789;53.216;5.624;2023-03-14T03:54:34;26.80;;;6.25;;
53875;SDS011;39789;53.216;5.624;2023-03-14T03:57:00;23.65;;;5.35;;
53875;SDS011;39789;53.216;5.624;2023-03-14T03:59:25;31.83;;;5.93;;
53875;SDS011;39789;53.216;5.624;2023-03-14T04:01:51;25.85;;;5.93;;
53875;SDS011;39789;53.216;5.624;2023-03-14T04:04:17;24.88;;;5.35;;
53875;SDS011;39789;53.216;5.624;2023-03-14T04:06:42;29.92;;;6.85;;
53875;SDS011;39789;53.216;5.624;2023-03-14T04:09:09;29.15;;;5.75;;
53875;SDS011;39789;53.216;5.624;2023-03-14T04:11:35;25.50;;;5.97;;
53875;SDS011;39789;53.216;5.624;2023-03-14T04:14:04;26.67;;;6.68;;
53875;SDS011;39789;53.216;5.624;2023-03-14T04:16:30;27.77;;;6.13;;
53875;SDS011;39789;53.216;5.624;2023-03-14T04:18:58;21.33;;;5.72;;
53875;SDS011;39789;53.216;5.624;2023-03-14T04:21:24;33.60;;;6.30;;
53875;SDS011;39789;53.216;5.624;2023-03-14T04:23:51;20.90;;;5.32;;
53875;SDS011;39789;53.216;5.624;2023-03-14T04:26:20;21.75;;;4.78;;
53875;SDS011;39789;53.216;5.624;2023-03-14T04:28:50;20.88;;;4.45;;
53875;SDS011;39789;53.216;5.624;2023-03-14T04:31:17;20.55;;;5.00;;
53875;SDS011;39789;53.216;5.624;2023-03-14T04:33:44;21.65;;;5.35;;
53875;SDS011;39789;53.216;5.624;2023-03-14T04:36:10;18.10;;;4.25;;
53875;SDS011;39789;53.216;5.624;2023-03-14T04:38:36;17.95;;;4.43;;
53875;SDS011;39789;53.216;5.624;2023-03-14T04:41:02;20.67;;;4.07;;
53875;SDS011;39789;53.216;5.624;2023-03-14T04:43:30;14.77;;;4.00;;
53875;SDS011;39789;53.216;5.624;2023-03-14T04:45:56;16.05;;;4.20;;
53875;SDS011;39789;53.216;5.624;2023-03-14T04:48:24;12.68;;;3.67;;
53875;SDS011;39789;53.216;5.624;2023-03-14T04:50:52;12.38;;;3.40;;
53875;SDS011;39789;53.216;5.624;2023-03-14T04:53:18;10.75;;;2.92;;
53875;SDS011;39789;53.216;5.624;2023-03-14T04:55:54;11.93;;;3.17;;
53875;SDS011;39789;53.216;5.624;2023-03-14T04:58:21;12.63;;;3.08;;
53875;SDS011;39789;53.216;5.624;2023-03-14T05:00:47;11.65;;;3.42;;
53875;SDS011;39789;53.216;5.624;2023-03-14T05:03:16;7.97;;;2.97;;
53875;SDS011;39789;53.216;5.624;2023-03-14T05:05:44;11.32;;;3.05;;
53875;SDS011;39789;53.216;5.624;2023-03-14T05:08:10;10.32;;;3.00;;
53875;SDS011;39789;53.216;5.624;2023-03-14T05:10:37;10.13;;;3.33;;
53875;SDS011;39789;53.216;5.624;2023-03-14T05:13:02;9.65;;;2.60;;
53875;SDS011;39789;53.216;5.624;2023-03-14T05:15:29;23.83;;;3.72;;
53875;SDS011;39789;53.216;5.624;2023-03-14T05:17:56;14.27;;;4.05;;
53875;SDS011;39789;53.216;5.624;2023-03-14T05:20:21;16.98;;;3.55;;
53875;SDS011;39789;53.216;5.624;2023-03-14T05:22:47;16.05;;;3.65;;
53875;SDS011;39789;53.216;5.624;2023-03-14T05:25:13;15.00;;;4.20;;
53875;SDS011;39789;53.216;5.624;2023-03-14T05:27:39;13.63;;;3.58;;
53875;SDS011;39789;53.216;5.624;2023-03-14T05:30:08;9.70;;;3.78;;
53875;SDS011;39789;53.216;5.624;2023-03-14T05:32:40;14.63;;;2.70;;
53875;SDS011;39789;53.216;5.624;2023-03-14T05:35:06;9.32;;;2.67;;
53875;SDS011;39789;53.216;5.624;2023-03-14T05:37:45;12.00;;;2.90;;
53875;SDS011;39789;53.216;5.624;2023-03-14T05:40:12;9.40;;;2.78;;
53875;SDS011;39789;53.216;5.624;2023-03-14T05:42:37;6.95;;;2.67;;
53875;SDS011;39789;53.216;5.624;2023-03-14T05:45:04;5.78;;;1.45;;
53875;SDS011;39789;53.216;5.624;2023-03-14T05:47:30;13.27;;;2.15;;
53875;SDS011;39789;53.216;5.624;2023-03-14T05:49:55;6.65;;;1.80;;
53875;SDS011;39789;53.216;5.624;2023-03-14T05:52:21;12.07;;;4.70;;
53875;SDS011;39789;53.216;5.624;2023-03-14T05:54:47;16.90;;;2.25;;
53875;SDS011;39789;53.216;5.624;2023-03-14T05:57:12;14.68;;;3.33;;
53875;SDS011;39789;53.216;5.624;2023-03-14T05:59:40;16.17;;;2.97;;
53875;SDS011;39789;53.216;5.624;2023-03-14T06:02:05;9.82;;;2.30;;
53875;SDS011;39789;53.216;5.624;2023-03-14T06:04:31;18.83;;;2.75;;
53875;SDS011;39789;53.216;5.624;2023-03-14T06:06:56;19.13;;;3.08;;
53875;SDS011;39789;53.216;5.624;2023-03-14T06:09:22;8.73;;;2.13;;
53875;SDS011;39789;53.216;5.624;2023-03-14T06:11:48;10.63;;;2.58;;
53875;SDS011;39789;53.216;5.624;2023-03-14T06:14:15;6.10;;;1.45;;
53875;SDS011;39789;53.216;5.624;2023-03-14T06:16:42;8.23;;;1.75;;
53875;SDS011;39789;53.216;5.624;2023-03-14T06:19:07;7.43;;;1.80;;
53875;SDS011;39789;53.216;5.624;2023-03-14T06:21:36;6.68;;;1.88;;
53875;SDS011;39789;53.216;5.624;2023-03-14T06:24:02;5.72;;;2.47;;
53875;SDS011;39789;53.216;5.624;2023-03-14T06:26:28;5.05;;;1.27;;
53875;SDS011;39789;53.216;5.624;2023-03-14T06:28:55;4.80;;;1.42;;
53875;SDS011;39789;53.216;5.624;2023-03-14T06:31:21;6.78;;;1.48;;
53875;SDS011;39789;53.216;5.624;2023-03-14T06:33:48;7.57;;;1.23;;
53875;SDS011;39789;53.216;5.624;2023-03-14T06:36:13;7.43;;;1.67;;
53875;SDS011;39789;53.216;5.624;2023-03-14T06:38:39;11.57;;;1.75;;
53875;SDS011;39789;53.216;5.624;2023-03-14T06:41:05;8.60;;;1.60;;
53875;SDS011;39789;53.216;5.624;2023-03-14T06:43:31;6.70;;;1.60;;
53875;SDS011;39789;53.216;5.624;2023-03-14T06:45:57;3.78;;;1.73;;
53875;SDS011;39789;53.216;5.624;2023-03-14T06:48:23;4.70;;;1.35;;
53875;SDS011;39789;53.216;5.624;2023-03-14T06:50:48;8.77;;;1.65;;
53875;SDS011;39789;53.216;5.624;2023-03-14T06:53:14;6.78;;;1.55;;
53875;SDS011;39789;53.216;5.624;2023-03-14T06:55:40;5.15;;;1.67;;
53875;SDS011;39789;53.216;5.624;2023-03-14T06:58:05;6.97;;;1.50;;
53875;SDS011;39789;53.216;5.624;2023-03-14T07:00:33;9.90;;;1.90;;
53875;SDS011;39789;53.216;5.624;2023-03-14T07:02:59;8.40;;;1.88;;
53875;SDS011;39789;53.216;5.624;2023-03-14T07:05:24;9.38;;;2.38;;
53875;SDS011;39789;53.216;5.624;2023-03-14T07:07:50;5.97;;;1.88;;
53875;SDS011;39789;53.216;5.624;2023-03-14T07:10:16;12.38;;;2.28;;
53875;SDS011;39789;53.216;5.624;2023-03-14T07:12:42;9.27;;;1.88;;
53875;SDS011;39789;53.216;5.624;2023-03-14T07:15:07;6.00;;;2.15;;
53875;SDS011;39789;53.216;5.624;2023-03-14T07:17:33;8.13;;;1.65;;
53875;SDS011;39789;53.216;5.624;2023-03-14T07:20:00;17.38;;;2.65;;
53875;SDS011;39789;53.216;5.624;2023-03-14T07:22:26;7.75;;;2.10;;
53875;SDS011;39789;53.216;5.624;2023-03-14T07:24:51;4.50;;;1.70;;
53875;SDS011;39789;53.216;5.624;2023-03-14T07:27:17;12.50;;;2.20;;
53875;SDS011;39789;53.216;5.624;2023-03-14T07:29:42;6.82;;;2.08;;
53875;SDS011;39789;53.216;5.624;2023-03-14T07:32:08;12.75;;;3.30;;
53875;SDS011;39789;53.216;5.624;2023-03-14T07:34:36;9.38;;;2.13;;
53875;SDS011;39789;53.216;5.624;2023-03-14T07:37:01;16.77;;;3.72;;
53875;SDS011;39789;53.216;5.624;2023-03-14T07:39:27;13.60;;;3.53;;
53875;SDS011;39789;53.216;5.624;2023-03-14T07:41:53;11.63;;;2.55;;
53875;SDS011;39789;53.216;5.624;2023-03-14T07:44:18;15.18;;;3.40;;
53875;SDS011;39789;53.216;5.624;2023-03-14T07:46:45;12.70;;;4.00;;
53875;SDS011;39789;53.216;5.624;2023-03-14T07:49:11;11.98;;;3.30;;
53875;SDS011;39789;53.216;5.624;2023-03-14T07:51:36;10.93;;;2.97;;
53875;SDS011;39789;53.216;5.624;2023-03-14T07:54:02;14.07;;;3.17;;
53875;SDS011;39789;53.216;5.624;2023-03-14T07:56:27;15.32;;;3.42;;
53875;SDS011;39789;53.216;5.624;2023-03-14T07:58:53;13.38;;;3.13;;
53875;SDS011;39789;53.216;5.624;2023-03-14T08:01:18;10.70;;;3.50;;
53875;SDS011;39789;53.216;5.624;2023-03-14T08:03:44;15.68;;;3.25;;
53875;SDS011;39789;53.216;5.624;2023-03-14T08:06:10;14.63;;;2.92;;
53875;SDS011;39789;53.216;5.624;2023-03-14T08:08:35;13.35;;;3.42;;
53875;SDS011;39789;53.216;5.624;2023-03-14T08:11:05;13.43;;;3.58;;
53875;SDS011;39789;53.216;5.624;2023-03-14T08:16:01;17.23;;;3.97;;
53875;SDS011;39789;53.216;5.624;2023-03-14T08:18:27;12.88;;;4.15;;
53875;SDS011;39789;53.216;5.624;2023-03-14T08:20:52;17.83;;;4.13;;
53875;SDS011;39789;53.216;5.624;2023-03-14T08:23:18;18.38;;;4.00;;
53875;SDS011;39789;53.216;5.624;2023-03-14T08:25:43;21.92;;;5.25;;
53875;SDS011;39789;53.216;5.624;2023-03-14T08:28:09;17.98;;;4.45;;
53875;SDS011;39789;53.216;5.624;2023-03-14T08:30:39;16.98;;;3.78;;
53875;SDS011;39789;53.216;5.624;2023-03-14T08:33:04;15.40;;;3.03;;
53875;SDS011;39789;53.216;5.624;2023-03-14T08:35:31;20.33;;;4.38;;
53875;SDS011;39789;53.216;5.624;2023-03-14T08:37:56;14.05;;;3.90;;
53875;SDS011;39789;53.216;5.624;2023-03-14T08:40:22;14.45;;;3.03;;
53875;SDS011;39789;53.216;5.624;2023-03-14T08:42:50;14.32;;;4.28;;
53875;SDS011;39789;53.216;5.624;2023-03-14T08:45:16;10.35;;;2.42;;
53875;SDS011;39789;53.216;5.624;2023-03-14T08:47:42;9.30;;;3.03;;
53875;SDS011;39789;53.216;5.624;2023-03-14T08:50:09;12.88;;;3.00;;
53875;SDS011;39789;53.216;5.624;2023-03-14T08:52:35;20.10;;;3.63;;
53875;SDS011;39789;53.216;5.624;2023-03-14T08:55:02;10.63;;;3.17;;
53875;SDS011;39789;53.216;5.624;2023-03-14T08:57:28;16.95;;;4.18;;
53875;SDS011;39789;53.216;5.624;2023-03-14T08:59:54;22.77;;;4.03;;
53875;SDS011;39789;53.216;5.624;2023-03-14T09:02:21;18.85;;;3.83;;
53875;SDS011;39789;53.216;5.624;2023-03-14T09:04:49;21.83;;;4.43;;
53875;SDS011;39789;53.216;5.624;2023-03-14T09:07:16;18.67;;;5.53;;
53875;SDS011;39789;53.216;5.624;2023-03-14T09:09:42;17.00;;;3.38;;
53875;SDS011;39789;53.216;5.624;2023-03-14T09:12:07;13.43;;;3.75;;
53875;SDS011;39789;53.216;5.624;2023-03-14T09:14:33;18.08;;;4.47;;
53875;SDS011;39789;53.216;5.624;2023-03-14T09:16:58;15.13;;;3.28;;
53875;SDS011;39789;53.216;5.624;2023-03-14T09:19:24;11.85;;;3.53;;
53875;SDS011;39789;53.216;5.624;2023-03-14T09:21:49;10.48;;;3.05;;
53875;SDS011;39789;53.216;5.624;2023-03-14T09:24:15;18.60;;;3.38;;
53875;SDS011;39789;53.216;5.624;2023-03-14T09:26:42;17.85;;;3.13;;
53875;SDS011;39789;53.216;5.624;2023-03-14T09:29:07;13.90;;;3.35;;
53875;SDS011;39789;53.216;5.624;2023-03-14T09:31:34;11.82;;;3.13;;
53875;SDS011;39789;53.216;5.624;2023-03-14T09:34:00;10.65;;;3.80;;
53875;SDS011;39789;53.216;5.624;2023-03-14T09:36:26;16.80;;;3.40;;
53875;SDS011;39789;53.216;5.624;2023-03-14T09:38:51;14.52;;;3.15;;
53875;SDS011;39789;53.216;5.624;2023-03-14T09:41:25;11.02;;;3.05;;
53875;SDS011;39789;53.216;5.624;2023-03-14T09:44:02;9.77;;;2.97;;
53875;SDS011;39789;53.216;5.624;2023-03-14T09:46:34;9.63;;;2.40;;
53875;SDS011;39789;53.216;5.624;2023-03-14T09:49:01;8.40;;;2.83;;
53875;SDS011;39789;53.216;5.624;2023-03-14T09:51:28;12.50;;;2.85;;
53875;SDS011;39789;53.216;5.624;2023-03-14T09:53:54;12.95;;;2.67;;
53875;SDS011;39789;53.216;5.624;2023-03-14T09:56:24;13.20;;;2.15;;
53875;SDS011;39789;53.216;5.624;2023-03-14T09:58:54;15.35;;;3.90;;
53875;SDS011;39789;53.216;5.624;2023-03-14T10:01:29;12.73;;;2.97;;
53875;SDS011;39789;53.216;5.624;2023-03-14T10:04:20;8.00;;;2.17;;
53875;SDS011;39789;53.216;5.624;2023-03-14T10:06:48;12.20;;;3.03;;
53875;SDS011;39789;53.216;5.624;2023-03-14T10:09:19;3.75;;;1.73;;
53875;SDS011;39789;53.216;5.624;2023-03-14T10:11:57;8.05;;;1.70;;
53875;SDS011;39789;53.216;5.624;2023-03-14T10:14:33;9.65;;;3.00;;
53875;SDS011;39789;53.216;5.624;2023-03-14T10:17:04;4.03;;;2.03;;
53875;SDS011;39789;53.216;5.624;2023-03-14T10:19:35;8.02;;;2.65;;
53875;SDS011;39789;53.216;5.624;2023-03-14T10:22:10;7.25;;;2.53;;
53875;SDS011;39789;53.216;5.624;2023-03-14T10:24:47;6.53;;;2.40;;
53875;SDS011;39789;53.216;5.624;2023-03-14T10:27:32;6.82;;;2.35;;
53875;SDS011;39789;53.216;5.624;2023-03-14T10:30:04;13.73;;;3.15;;
53875;SDS011;39789;53.216;5.624;2023-03-14T10:32:36;9.35;;;2.35;;
53875;SDS011;39789;53.216;5.624;2023-03-14T10:35:19;12.88;;;3.60;;
53875;SDS011;39789;53.216;5.624;2023-03-14T10:37:59;10.07;;;2.45;;
53875;SDS011;39789;53.216;5.624;2023-03-14T10:40:28;14.32;;;2.42;;
53875;SDS011;39789;53.216;5.624;2023-03-14T10:42:57;8.38;;;1.88;;
53875;SDS011;39789;53.216;5.624;2023-03-14T10:45:28;3.88;;;1.75;;
53875;SDS011;39789;53.216;5.624;2023-03-14T10:47:54;5.63;;;2.25;;
53875;SDS011;39789;53.216;5.624;2023-03-14T10:50:53;7.95;;;2.58;;
53875;SDS011;39789;53.216;5.624;2023-03-14T10:53:41;6.32;;;1.38;;
53875;SDS011;39789;53.216;5.624;2023-03-14T10:56:21;7.03;;;1.92;;
53875;SDS011;39789;53.216;5.624;2023-03-14T10:58:49;7.75;;;1.63;;
53875;SDS011;39789;53.216;5.624;2023-03-14T11:03:49;4.63;;;1.85;;
53875;SDS011;39789;53.216;5.624;2023-03-14T11:09:38;5.75;;;1.58;;
53875;SDS011;39789;53.216;5.624;2023-03-14T11:12:16;7.93;;;2.28;;
53875;SDS011;39789;53.216;5.624;2023-03-14T11:15:06;9.38;;;2.03;;
53875;SDS011;39789;53.216;5.624;2023-03-14T11:18:16;7.07;;;1.92;;
53875;SDS011;39789;53.216;5.624;2023-03-14T11:20:59;7.82;;;1.98;;
53875;SDS011;39789;53.216;5.624;2023-03-14T11:26:48;13.68;;;3.53;;
53875;SDS011;39789;53.216;5.624;2023-03-14T11:32:23;7.95;;;2.20;;
53875;SDS011;39789;53.216;5.624;2023-03-14T11:34:50;10.90;;;2.30;;
53875;SDS011;39789;53.216;5.624;2023-03-14T11:39:52;10.88;;;2.05;;
53875;SDS011;39789;53.216;5.624;2023-03-14T11:42:34;5.75;;;2.58;;
53875;SDS011;39789;53.216;5.624;2023-03-14T11:45:05;8.98;;;2.38;;
53875;SDS011;39789;53.216;5.624;2023-03-14T11:47:51;6.18;;;2.38;;
53875;SDS011;39789;53.216;5.624;2023-03-14T11:50:32;7.25;;;2.10;;
53875;SDS011;39789;53.216;5.624;2023-03-14T11:55:44;8.50;;;2.72;;
53875;SDS011;39789;53.216;5.624;2023-03-14T11:58:20;5.28;;;2.05;;
53875;SDS011;39789;53.216;5.624;2023-03-14T12:00:54;9.90;;;2.70;;
53875;SDS011;39789;53.216;5.624;2023-03-14T12:03:29;7.03;;;2.08;;
53875;SDS011;39789;53.216;5.624;2023-03-14T12:06:03;11.25;;;2.15;;
53875;SDS011;39789;53.216;5.624;2023-03-14T12:08:42;8.77;;;1.80;;
53875;SDS011;39789;53.216;5.624;2023-03-14T12:11:19;6.85;;;1.63;;
53875;SDS011;39789;53.216;5.624;2023-03-14T12:13:54;6.15;;;1.50;;
53875;SDS011;39789;53.216;5.624;2023-03-14T12:16:30;4.18;;;1.20;;
53875;SDS011;39789;53.216;5.624;2023-03-14T12:19:36;5.68;;;1.88;;
53875;SDS011;39789;53.216;5.624;2023-03-14T12:22:07;8.30;;;2.70;;
53875;SDS011;39789;53.216;5.624;2023-03-14T12:24:45;7.22;;;2.05;;
53875;SDS011;39789;53.216;5.624;2023-03-14T12:27:37;9.57;;;2.20;;
53875;SDS011;39789;53.216;5.624;2023-03-14T12:30:23;10.18;;;2.60;;
53875;SDS011;39789;53.216;5.624;2023-03-14T12:35:42;9.80;;;2.15;;
53875;SDS011;39789;53.216;5.624;2023-03-14T12:38:23;10.00;;;3.17;;
53875;SDS011;39789;53.216;5.624;2023-03-14T12:43:39;10.77;;;2.33;;
53875;SDS011;39789;53.216;5.624;2023-03-14T12:48:47;7.95;;;2.63;;
53875;SDS011;39789;53.216;5.624;2023-03-14T12:51:19;7.82;;;2.40;;
53875;SDS011;39789;53.216;5.624;2023-03-14T12:53:57;12.25;;;2.15;;
53875;SDS011;39789;53.216;5.624;2023-03-14T13:01:46;12.60;;;2.70;;
53875;SDS011;39789;53.216;5.624;2023-03-14T13:04:19;8.05;;;1.90;;
53875;SDS011;39789;53.216;5.624;2023-03-14T13:07:10;9.15;;;3.17;;
53875;SDS011;39789;53.216;5.624;2023-03-14T13:10:15;7.45;;;1.90;;
53875;SDS011;39789;53.216;5.624;2023-03-14T13:12:50;8.88;;;2.13;;
53875;SDS011;39789;53.216;5.624;2023-03-14T13:15:28;7.75;;;1.83;;
53875;SDS011;39789;53.216;5.624;2023-03-14T13:17:59;10.07;;;2.38;;
53875;SDS011;39789;53.216;5.624;2023-03-14T13:20:30;8.18;;;1.73;;
53875;SDS011;39789;53.216;5.624;2023-03-14T13:23:02;12.20;;;2.90;;
53875;SDS011;39789;53.216;5.624;2023-03-14T13:25:34;6.18;;;2.17;;
53875;SDS011;39789;53.216;5.624;2023-03-14T13:28:02;6.15;;;2.13;;
53875;SDS011;39789;53.216;5.624;2023-03-14T13:30:39;9.60;;;2.17;;
53875;SDS011;39789;53.216;5.624;2023-03-14T13:33:13;8.15;;;2.00;;
53875;SDS011;39789;53.216;5.624;2023-03-14T13:35:46;6.43;;;1.90;;
53875;SDS011;39789;53.216;5.624;2023-03-14T13:38:20;5.18;;;1.67;;
53875;SDS011;39789;53.216;5.624;2023-03-14T13:43:18;7.78;;;1.77;;
53875;SDS011;39789;53.216;5.624;2023-03-14T13:46:17;5.97;;;1.92;;
53875;SDS011;39789;53.216;5.624;2023-03-14T13:48:47;6.70;;;1.80;;
53875;SDS011;39789;53.216;5.624;2023-03-14T13:51:18;6.90;;;2.08;;
53875;SDS011;39789;53.216;5.624;2023-03-14T13:53:47;4.57;;;1.70;;
53875;SDS011;39789;53.216;5.624;2023-03-14T13:56:17;4.13;;;1.60;;
53875;SDS011;39789;53.216;5.624;2023-03-14T13:58:44;4.10;;;1.70;;
53875;SDS011;39789;53.216;5.624;2023-03-14T14:03:52;5.47;;;1.90;;
53875;SDS011;39789;53.216;5.624;2023-03-14T14:06:26;6.72;;;2.08;;
53875;SDS011;39789;53.216;5.624;2023-03-14T14:09:11;6.07;;;2.17;;
53875;SDS011;39789;53.216;5.624;2023-03-14T14:11:44;9.30;;;1.98;;
53875;SDS011;39789;53.216;5.624;2023-03-14T14:14:16;6.28;;;1.92;;
53875;SDS011;39789;53.216;5.624;2023-03-14T14:16:53;9.98;;;2.35;;
53875;SDS011;39789;53.216;5.624;2023-03-14T14:19:20;8.43;;;2.97;;
53875;SDS011;39789;53.216;5.624;2023-03-14T14:21:49;6.45;;;2.20;;
53875;SDS011;39789;53.216;5.624;2023-03-14T14:24:16;17.90;;;3.55;;
53875;SDS011;39789;53.216;5.624;2023-03-14T14:26:52;10.35;;;2.45;;
53875;SDS011;39789;53.216;5.624;2023-03-14T14:29:27;8.48;;;2.60;;
53875;SDS011;39789;53.216;5.624;2023-03-14T14:34:28;8.27;;;2.72;;
53875;SDS011;39789;53.216;5.624;2023-03-14T14:36:54;6.00;;;2.53;;
53875;SDS011;39789;53.216;5.624;2023-03-14T14:39:24;10.75;;;2.78;;
53875;SDS011;39789;53.216;5.624;2023-03-14T14:41:52;8.73;;;2.50;;
53875;SDS011;39789;53.216;5.624;2023-03-14T14:44:19;9.38;;;2.20;;
53875;SDS011;39789;53.216;5.624;2023-03-14T14:46:57;9.15;;;2.47;;
53875;SDS011;39789;53.216;5.624;2023-03-14T14:49:27;6.03;;;2.10;;
53875;SDS011;39789;53.216;5.624;2023-03-14T14:51:59;8.88;;;2.08;;
53875;SDS011;39789;53.216;5.624;2023-03-14T14:54:33;5.78;;;1.70;;
53875;SDS011;39789;53.216;5.624;2023-03-14T14:57:03;6.15;;;1.70;;
53875;SDS011;39789;53.216;5.624;2023-03-14T14:59:30;15.10;;;2.88;;
53875;SDS011;39789;53.216;5.624;2023-03-14T15:02:16;10.48;;;2.70;;
53875;SDS011;39789;53.216;5.624;2023-03-14T15:05:17;8.30;;;3.10;;
53875;SDS011;39789;53.216;5.624;2023-03-14T15:07:44;8.80;;;2.78;;
53875;SDS011;39789;53.216;5.624;2023-03-14T15:10:14;8.77;;;2.15;;
53875;SDS011;39789;53.216;5.624;2023-03-14T15:12:41;14.30;;;2.55;;
53875;SDS011;39789;53.216;5.624;2023-03-14T15:15:07;12.15;;;2.30;;
53875;SDS011;39789;53.216;5.624;2023-03-14T15:17:34;12.50;;;2.85;;
53875;SDS011;39789;53.216;5.624;2023-03-14T15:20:02;15.68;;;3.03;;
53875;SDS011;39789;53.216;5.624;2023-03-14T15:22:29;8.95;;;2.35;;
53875;SDS011;39789;53.216;5.624;2023-03-14T15:24:55;7.13;;;2.30;;
53875;SDS011;39789;53.216;5.624;2023-03-14T15:27:22;9.95;;;2.28;;
53875;SDS011;39789;53.216;5.624;2023-03-14T15:29:51;8.15;;;2.75;;
53875;SDS011;39789;53.216;5.624;2023-03-14T15:32:20;9.30;;;2.25;;
53875;SDS011;39789;53.216;5.624;2023-03-14T15:34:47;10.32;;;2.30;;
53875;SDS011;39789;53.216;5.624;2023-03-14T15:37:13;7.45;;;2.53;;